createdAt,value
2018-05-21T00:01:00.837Z,8.80
2018-05-21T00:03:38.496Z,12.82
2018-05-21T00:06:19.189Z,10.13
2018-05-21T00:08:56.358Z,8.90
2018-05-21T00:11:34.082Z,11.88
2018-05-21T00:14:11.094Z,10.52
2018-05-21T00:16:49.796Z,11.38
2018-05-21T00:19:27.079Z,11.95
2018-05-21T00:22:03.742Z,11.45
2018-05-21T00:24:41.060Z,10.63
2018-05-21T00:27:19.242Z,10.55
2018-05-21T00:29:58.212Z,10.50
2018-05-21T00:32:37.500Z,9.80
2018-05-21T00:35:14.161Z,9.68
2018-05-21T00:37:52.189Z,10.60
2018-05-21T00:40:29.057Z,10.23
2018-05-21T00:43:04.725Z,11.98
2018-05-21T00:45:42.733Z,12.32
2018-05-21T00:48:20.103Z,9.80
2018-05-21T00:50:57.976Z,10.93
2018-05-21T00:53:36.074Z,9.98
2018-05-21T00:56:12.923Z,9.85
2018-05-21T00:58:50.984Z,12.82
2018-05-21T01:01:29.189Z,9.50
2018-05-21T01:04:08.633Z,10.82
2018-05-21T01:06:45.578Z,9.27
2018-05-21T01:09:23.820Z,12.07
2018-05-21T01:12:00.009Z,9.75
2018-05-21T01:14:38.096Z,11.60
2018-05-21T01:17:16.669Z,10.20
2018-05-21T01:19:52.867Z,11.95
2018-05-21T01:22:30.252Z,11.90
2018-05-21T01:25:06.269Z,10.20
2018-05-21T01:27:44.942Z,9.90
2018-05-21T01:30:22.389Z,10.30
2018-05-21T01:33:00.081Z,9.98
2018-05-21T01:35:38.295Z,12.00
2018-05-21T01:38:15.185Z,11.10
2018-05-21T01:40:53.430Z,10.95
2018-05-21T01:43:30.368Z,10.55
2018-05-21T01:46:07.672Z,10.82
2018-05-21T01:48:44.777Z,10.30
2018-05-21T01:51:22.308Z,11.48
2018-05-21T01:53:59.102Z,12.55
2018-05-21T01:56:36.009Z,13.43
2018-05-21T01:59:13.954Z,11.02
2018-05-21T02:01:51.719Z,11.60
2018-05-21T02:04:28.606Z,10.95
2018-05-21T02:07:05.024Z,11.98
2018-05-21T02:09:43.255Z,10.32
2018-05-21T02:12:20.783Z,12.43
2018-05-21T02:14:57.531Z,10.77
2018-05-21T02:17:35.416Z,10.65
2018-05-21T02:20:12.217Z,11.00
2018-05-21T02:22:48.622Z,11.68
2018-05-21T02:25:25.493Z,15.10
2018-05-21T02:28:04.073Z,10.60
2018-05-21T02:30:40.936Z,12.05
2018-05-21T02:33:18.225Z,11.60
2018-05-21T02:35:56.024Z,12.13
2018-05-21T02:38:33.104Z,14.07
2018-05-21T02:41:09.708Z,13.13
2018-05-21T02:43:46.482Z,10.52
2018-05-21T02:46:23.754Z,11.88
2018-05-21T02:49:00.410Z,13.50
2018-05-21T02:51:37.399Z,10.57
2018-05-21T02:54:14.981Z,12.00
2018-05-21T02:56:51.972Z,12.77
2018-05-21T02:59:30.252Z,11.77
2018-05-21T03:02:06.248Z,12.15
2018-05-21T03:04:43.521Z,11.80
2018-05-21T03:07:21.151Z,11.20
2018-05-21T03:09:59.037Z,10.38
2018-05-21T03:12:36.225Z,13.40
2018-05-21T03:15:13.480Z,11.02
2018-05-21T03:17:50.578Z,10.48
2018-05-21T03:20:27.687Z,12.75
2018-05-21T03:23:04.175Z,12.35
2018-05-21T03:25:40.702Z,13.70
2018-05-21T03:28:18.958Z,11.32
2018-05-21T03:30:55.410Z,12.13
2018-05-21T03:33:32.140Z,16.73
2018-05-21T03:36:09.737Z,11.70
2018-05-21T03:38:47.622Z,11.70
2018-05-21T03:41:26.150Z,10.48
2018-05-21T03:44:02.521Z,11.57
2018-05-21T03:46:40.439Z,11.30
2018-05-21T03:49:18.024Z,13.30
2018-05-21T03:51:54.696Z,12.05
2018-05-21T03:54:31.353Z,11.05
2018-05-21T03:57:07.880Z,12.60
2018-05-21T04:00:01.667Z,11.82
2018-05-21T04:02:56.580Z,12.95
2018-05-21T04:05:36.514Z,12.35
2018-05-21T04:08:13.672Z,12.77
2018-05-21T04:10:50.692Z,10.27
2018-05-21T04:13:28.330Z,12.02
2018-05-21T04:16:05.434Z,12.35
2018-05-21T04:18:43.576Z,10.93
2018-05-21T04:21:19.808Z,9.45
2018-05-21T04:23:56.925Z,9.82
2018-05-21T04:26:34.712Z,12.32
2018-05-21T04:29:12.866Z,11.52
2018-05-21T04:31:50.234Z,11.65
2018-05-21T04:34:27.818Z,10.30
2018-05-21T04:37:06.686Z,9.98
2018-05-21T04:39:43.545Z,10.63
2018-05-21T04:42:21.220Z,12.27
2018-05-21T04:44:59.312Z,11.50
2018-05-21T04:47:38.320Z,12.13
2018-05-21T04:50:15.236Z,11.65
2018-05-21T04:52:52.829Z,10.60
2018-05-21T04:55:30.426Z,10.75
2018-05-21T04:58:08.016Z,14.75
2018-05-21T05:00:45.016Z,11.15
2018-05-21T05:03:22.315Z,10.38
2018-05-21T05:05:59.817Z,10.93
2018-05-21T05:08:39.343Z,10.98
2018-05-21T05:11:16.525Z,12.20
2018-05-21T05:13:53.891Z,9.75
2018-05-21T05:16:30.581Z,10.50
2018-05-21T05:19:07.849Z,10.30
2018-05-21T05:21:45.745Z,11.15
2018-05-21T05:24:23.391Z,10.27
2018-05-21T05:27:01.234Z,9.15
2018-05-21T05:29:39.138Z,10.35
2018-05-21T05:32:16.441Z,8.68
2018-05-21T05:34:53.570Z,8.27
2018-05-21T05:37:31.368Z,11.38
2018-05-21T05:40:08.926Z,9.70
2018-05-21T05:42:46.805Z,8.45
2018-05-21T05:45:23.315Z,8.02
2018-05-21T05:48:01.020Z,8.73
2018-05-21T05:50:38.046Z,8.52
2018-05-21T05:53:18.631Z,9.07
2018-05-21T05:55:57.821Z,8.95
2018-05-21T05:58:35.847Z,9.23
2018-05-21T06:01:15.346Z,8.60
2018-05-21T06:03:53.720Z,7.55
2018-05-21T06:06:31.292Z,8.68
2018-05-21T06:09:08.741Z,7.40
2018-05-21T06:11:45.978Z,6.47
2018-05-21T06:14:23.785Z,7.62
2018-05-21T06:17:00.805Z,6.20
2018-05-21T06:19:36.713Z,7.97
2018-05-21T06:22:13.806Z,7.43
2018-05-21T06:24:50.794Z,8.67
2018-05-21T06:27:28.575Z,7.47
2018-05-21T06:30:06.525Z,8.73
2018-05-21T06:32:44.012Z,6.23
2018-05-21T06:35:21.748Z,8.30
2018-05-21T06:38:00.653Z,8.10
2018-05-21T06:40:37.584Z,9.13
2018-05-21T06:43:14.248Z,6.77
2018-05-21T06:45:51.593Z,7.87
2018-05-21T06:48:30.229Z,7.17
2018-05-21T06:51:07.767Z,8.70
2018-05-21T06:53:47.002Z,6.50
2018-05-21T06:56:26.025Z,7.60
2018-05-21T06:59:03.193Z,6.10
2018-05-21T07:01:40.615Z,4.57
2018-05-21T07:04:19.545Z,7.30
2018-05-21T07:06:57.010Z,7.50
2018-05-21T07:09:35.016Z,5.27
2018-05-21T07:12:13.070Z,8.97
2018-05-21T07:14:51.877Z,5.50
2018-05-21T07:17:28.897Z,4.73
2018-05-21T07:20:05.943Z,6.53
2018-05-21T07:22:43.071Z,5.90
2018-05-21T07:25:20.986Z,5.37
2018-05-21T07:27:59.038Z,5.67
2018-05-21T07:30:36.878Z,5.70
2018-05-21T07:33:14.858Z,5.73
2018-05-21T07:35:51.445Z,8.97
2018-05-21T07:38:30.462Z,7.03
2018-05-21T07:41:07.710Z,5.33
2018-05-21T07:43:46.764Z,6.57
2018-05-21T07:46:25.628Z,6.47
2018-05-21T07:49:03.422Z,8.10
2018-05-21T07:51:45.318Z,6.63
2018-05-21T07:54:22.509Z,4.23
2018-05-21T07:57:02.038Z,7.13
2018-05-21T07:59:40.853Z,5.43
2018-05-21T08:02:18.745Z,4.60
2018-05-21T08:04:57.933Z,3.37
2018-05-21T08:07:36.508Z,3.10
2018-05-21T08:10:16.405Z,3.23
2018-05-21T08:12:55.184Z,4.90
2018-05-21T08:15:34.630Z,6.47
2018-05-21T08:18:11.909Z,5.70
2018-05-21T08:20:49.281Z,6.77
2018-05-21T08:23:26.188Z,11.30
2018-05-21T08:26:02.732Z,3.50
2018-05-21T08:28:41.569Z,4.33
2018-05-21T08:31:18.361Z,3.50
2018-05-21T08:33:55.879Z,3.03
2018-05-21T08:36:34.936Z,3.57
2018-05-21T08:39:12.095Z,4.90
2018-05-21T08:41:48.441Z,4.37
2018-05-21T08:44:25.693Z,3.50
2018-05-21T08:47:03.003Z,3.43
2018-05-21T08:49:39.978Z,7.47
2018-05-21T08:52:18.240Z,6.97
2018-05-21T08:54:55.506Z,2.90
2018-05-21T08:57:32.922Z,4.43
2018-05-21T09:00:09.849Z,8.30
2018-05-21T09:02:47.047Z,3.53
2018-05-21T09:05:25.191Z,4.33
2018-05-21T09:08:03.142Z,7.40
2018-05-21T09:10:40.109Z,3.40
2018-05-21T09:13:17.463Z,2.83
2018-05-21T09:15:55.811Z,5.30
2018-05-21T09:18:32.929Z,4.73
2018-05-21T09:21:10.566Z,6.93
2018-05-21T09:23:47.261Z,4.70
2018-05-21T09:26:25.145Z,4.97
2018-05-21T09:29:02.457Z,3.23
2018-05-21T09:31:40.239Z,4.27
2018-05-21T09:34:18.162Z,4.53
2018-05-21T09:36:55.653Z,5.03
2018-05-21T09:39:32.710Z,3.60
2018-05-21T09:42:10.743Z,5.63
2018-05-21T09:44:49.346Z,6.37
2018-05-21T09:47:28.347Z,4.73
2018-05-21T09:50:05.177Z,5.17
2018-05-21T09:52:41.760Z,3.27
2018-05-21T09:55:18.671Z,3.17
2018-05-21T09:57:55.620Z,4.70
2018-05-21T10:00:34.093Z,3.13
2018-05-21T10:03:11.980Z,4.73
2018-05-21T10:05:49.047Z,6.17
2018-05-21T10:08:26.875Z,5.27
2018-05-21T10:11:03.507Z,3.17
2018-05-21T10:13:41.446Z,8.67
2018-05-21T10:16:20.119Z,3.43
2018-05-21T10:18:57.283Z,4.37
2018-05-21T10:21:34.537Z,4.87
2018-05-21T10:24:12.773Z,5.33
2018-05-21T10:26:50.535Z,3.13
2018-05-21T10:29:28.367Z,4.70
2018-05-21T10:32:05.144Z,3.90
2018-05-21T10:34:42.498Z,5.87
2018-05-21T10:37:18.609Z,7.73
2018-05-21T10:39:57.401Z,3.10
2018-05-21T10:42:34.487Z,3.37
2018-05-21T10:45:11.648Z,4.03
2018-05-21T10:47:50.170Z,3.40
2018-05-21T10:50:29.033Z,8.00
2018-05-21T10:53:05.649Z,4.70
2018-05-21T10:55:44.490Z,5.23
2018-05-21T10:58:21.744Z,3.73
2018-05-21T11:00:59.819Z,2.90
2018-05-21T11:03:36.321Z,5.67
2018-05-21T11:06:13.155Z,4.07
2018-05-21T11:08:50.411Z,6.53
2018-05-21T11:11:26.785Z,8.30
2018-05-21T11:14:03.916Z,4.33
2018-05-21T11:16:43.065Z,3.50
2018-05-21T11:19:20.427Z,4.50
2018-05-21T11:21:58.352Z,4.07
2018-05-21T11:24:37.349Z,3.93
2018-05-21T11:27:14.118Z,8.30
2018-05-21T11:29:51.061Z,6.87
2018-05-21T11:32:28.340Z,4.13
2018-05-21T11:35:05.570Z,5.33
2018-05-21T11:37:43.305Z,6.20
2018-05-21T11:40:20.608Z,5.00
2018-05-21T11:42:58.960Z,4.23
2018-05-21T11:45:36.309Z,5.93
2018-05-21T11:48:14.173Z,4.37
2018-05-21T11:50:52.810Z,4.93
2018-05-21T11:53:29.402Z,3.90
2018-05-21T11:56:06.042Z,5.27
2018-05-21T11:58:43.352Z,4.80
2018-05-21T12:01:22.432Z,7.90
2018-05-21T12:03:59.201Z,3.33
2018-05-21T12:06:35.542Z,5.30
2018-05-21T12:09:12.799Z,6.50
2018-05-21T12:11:50.005Z,4.33
2018-05-21T12:14:26.990Z,3.30
2018-05-21T12:17:04.619Z,6.73
2018-05-21T12:19:41.965Z,4.43
2018-05-21T12:22:20.051Z,5.43
2018-05-21T12:24:57.447Z,5.43
2018-05-21T12:27:33.591Z,8.63
2018-05-21T12:30:10.900Z,6.50
2018-05-21T12:32:48.139Z,7.33
2018-05-21T12:35:24.710Z,5.90
2018-05-21T12:38:04.138Z,6.77
2018-05-21T12:40:41.494Z,8.23
2018-05-21T12:43:18.171Z,5.23
2018-05-21T12:45:55.262Z,4.40
2018-05-21T12:48:32.031Z,5.73
2018-05-21T12:51:10.034Z,5.07
2018-05-21T12:53:47.426Z,8.63
2018-05-21T12:56:24.596Z,5.23
2018-05-21T12:59:01.867Z,5.17
2018-05-21T13:01:38.556Z,3.40
2018-05-21T13:04:15.209Z,7.13
2018-05-21T13:06:53.373Z,4.83
2018-05-21T13:09:31.016Z,4.90
2018-05-21T13:12:09.290Z,4.93
2018-05-21T13:14:47.133Z,7.97
2018-05-21T13:17:24.117Z,3.93
2018-05-21T13:20:03.223Z,8.03
2018-05-21T13:22:39.918Z,6.27
2018-05-21T13:25:17.533Z,6.90
2018-05-21T13:27:54.956Z,7.97
2018-05-21T13:30:32.717Z,4.40
2018-05-21T13:33:09.739Z,5.33
2018-05-21T13:35:46.666Z,6.07
2018-05-21T13:38:24.755Z,5.77
2018-05-21T13:41:02.524Z,4.97
2018-05-21T13:43:40.677Z,12.03
2018-05-21T13:46:18.572Z,8.00
2018-05-21T13:48:55.393Z,6.77
2018-05-21T13:51:33.873Z,7.00
2018-05-21T13:54:10.750Z,7.77
2018-05-21T13:56:47.721Z,5.17
2018-05-21T13:59:24.725Z,3.23
2018-05-21T14:02:02.696Z,8.83
2018-05-21T14:04:39.918Z,4.70
2018-05-21T14:07:17.400Z,3.30
2018-05-21T14:09:54.845Z,6.20
2018-05-21T14:12:31.761Z,5.37
2018-05-21T14:15:09.986Z,5.97
2018-05-21T14:17:47.260Z,5.43
2018-05-21T14:20:24.410Z,5.57
2018-05-21T14:23:00.779Z,5.00
2018-05-21T14:25:37.590Z,5.87
2018-05-21T14:28:14.181Z,7.37
2018-05-21T14:30:52.455Z,5.40
2018-05-21T14:33:30.109Z,4.43
2018-05-21T14:36:07.615Z,5.67
2018-05-21T14:38:45.489Z,4.53
2018-05-21T14:41:22.368Z,5.73
2018-05-21T14:44:00.103Z,6.53
2018-05-21T14:46:37.962Z,7.27
2018-05-21T14:49:13.733Z,4.10
2018-05-21T14:51:50.645Z,7.70
2018-05-21T14:54:27.499Z,7.93
2018-05-21T14:57:05.022Z,4.50
2018-05-21T14:59:42.140Z,3.33
2018-05-21T15:02:19.395Z,6.27
2018-05-21T15:04:56.882Z,4.03
2018-05-21T15:07:35.084Z,8.47
2018-05-21T15:10:12.945Z,5.93
2018-05-21T15:12:49.509Z,4.97
2018-05-21T15:15:26.624Z,6.30
2018-05-21T15:18:04.239Z,5.30
2018-05-21T15:20:41.808Z,6.53
2018-05-21T15:23:19.106Z,4.70
2018-05-21T15:25:56.197Z,7.13
2018-05-21T15:28:33.133Z,4.83
2018-05-21T15:31:10.972Z,6.27
2018-05-21T15:33:48.745Z,6.20
2018-05-21T15:36:25.570Z,7.60
2018-05-21T15:39:03.246Z,4.03
2018-05-21T15:41:40.707Z,5.20
2018-05-21T15:44:17.721Z,6.03
2018-05-21T15:46:55.001Z,3.03
2018-05-21T15:49:33.464Z,5.40
2018-05-21T15:52:11.729Z,6.70
2018-05-21T15:54:49.373Z,5.03
2018-05-21T15:57:26.731Z,5.93
2018-05-21T16:00:03.342Z,4.27
2018-05-21T16:02:40.892Z,4.17
2018-05-21T16:05:18.060Z,8.27
2018-05-21T16:07:55.372Z,4.03
2018-05-21T16:10:32.143Z,4.00
2018-05-21T16:13:09.624Z,4.70
2018-05-21T16:15:47.890Z,7.97
2018-05-21T16:18:24.083Z,6.27
2018-05-21T16:21:02.501Z,6.47
2018-05-21T16:23:39.574Z,8.40
2018-05-21T16:26:16.583Z,4.70
2018-05-21T16:28:54.044Z,7.00
2018-05-21T16:31:30.709Z,6.33
2018-05-21T16:34:08.973Z,7.73
2018-05-21T16:36:46.213Z,3.80
2018-05-21T16:39:24.418Z,4.17
2018-05-21T16:42:01.354Z,4.43
2018-05-21T16:44:37.885Z,4.77
2018-05-21T16:47:15.133Z,4.40
2018-05-21T16:49:52.325Z,6.40
2018-05-21T16:52:28.443Z,6.17
2018-05-21T16:55:05.339Z,6.03
2018-05-21T16:57:44.716Z,4.37
2018-05-21T17:00:21.586Z,7.77
2018-05-21T17:02:59.389Z,6.60
2018-05-21T17:05:36.867Z,7.60
2018-05-21T17:08:13.052Z,14.43
2018-05-21T17:10:49.430Z,10.20
2018-05-21T17:13:28.263Z,5.53
2018-05-21T17:16:04.762Z,5.80
2018-05-21T17:18:43.580Z,5.93
2018-05-21T17:21:20.680Z,5.53
2018-05-21T17:23:57.383Z,5.17
2018-05-21T17:26:34.054Z,7.43
2018-05-21T17:29:11.963Z,7.70
2018-05-21T17:31:49.923Z,9.27
2018-05-21T17:34:28.009Z,9.27
2018-05-21T17:37:04.437Z,4.87
2018-05-21T17:39:42.037Z,7.30
2018-05-21T17:42:18.309Z,5.57
2018-05-21T17:44:55.384Z,4.97
2018-05-21T17:47:32.160Z,6.77
2018-05-21T17:50:10.015Z,7.00
2018-05-21T17:52:48.566Z,6.27
2018-05-21T17:55:24.841Z,4.47
2018-05-21T17:58:01.066Z,6.07
2018-05-21T18:00:37.691Z,4.47
2018-05-21T18:03:15.281Z,6.30
2018-05-21T18:05:52.438Z,6.20
2018-05-21T18:08:29.595Z,8.60
2018-05-21T18:11:06.689Z,4.87
2018-05-21T18:13:45.597Z,8.90
2018-05-21T18:16:21.888Z,8.33
2018-05-21T18:18:58.984Z,5.37
2018-05-21T18:21:36.565Z,4.53
2018-05-21T18:24:14.069Z,5.53
2018-05-21T18:26:51.959Z,6.43
2018-05-21T18:29:29.875Z,4.90
2018-05-21T18:32:09.239Z,4.23
2018-05-21T18:34:46.909Z,5.27
2018-05-21T18:37:23.813Z,9.30
2018-05-21T18:40:00.505Z,3.47
2018-05-21T18:42:37.651Z,8.07
2018-05-21T18:45:14.208Z,5.73
2018-05-21T18:47:50.687Z,4.10
2018-05-21T18:50:28.253Z,6.63
2018-05-21T18:53:05.552Z,4.97
2018-05-21T18:55:43.961Z,6.50
2018-05-21T18:58:20.349Z,8.57
2018-05-21T19:00:56.675Z,8.33
2018-05-21T19:03:33.686Z,6.77
2018-05-21T19:06:11.604Z,6.07
2018-05-21T19:08:49.805Z,5.17
2018-05-21T19:11:27.693Z,6.47
2018-05-21T19:14:04.333Z,6.23
2018-05-21T19:16:42.564Z,7.10
2018-05-21T19:19:20.160Z,5.07
2018-05-21T19:21:56.520Z,5.90
2018-05-21T19:24:34.576Z,6.63
2018-05-21T19:27:12.117Z,7.03
2018-05-21T19:29:48.704Z,5.37
2018-05-21T19:32:25.187Z,4.90
2018-05-21T19:35:02.344Z,6.07
2018-05-21T19:37:39.933Z,5.27
2018-05-21T19:40:16.952Z,9.67
2018-05-21T19:42:54.187Z,5.53
2018-05-21T19:45:31.507Z,4.97
2018-05-21T19:48:07.575Z,5.63
2018-05-21T19:50:49.331Z,4.80
2018-05-21T19:53:26.755Z,6.57
2018-05-21T19:56:04.189Z,9.43
2018-05-21T19:58:41.436Z,5.67
2018-05-21T20:01:17.960Z,5.00
2018-05-21T20:03:57.601Z,8.87
2018-05-21T20:06:33.969Z,4.10
2018-05-21T20:09:11.702Z,7.07
2018-05-21T20:11:50.223Z,3.77
2018-05-21T20:14:26.128Z,6.93
2018-05-21T20:17:04.160Z,5.67
2018-05-21T20:19:41.149Z,4.13
2018-05-21T20:22:18.957Z,8.10
2018-05-21T20:24:57.053Z,7.67
2018-05-21T20:27:34.944Z,11.97
2018-05-21T20:30:11.980Z,6.93
2018-05-21T20:32:50.075Z,6.43
2018-05-21T20:35:26.453Z,6.43
2018-05-21T20:38:03.047Z,8.63
2018-05-21T20:40:41.049Z,5.70
2018-05-21T20:43:20.482Z,4.73
2018-05-21T20:45:58.622Z,5.33
2018-05-21T20:48:38.074Z,4.90
2018-05-21T20:51:15.823Z,4.40
2018-05-21T20:53:53.726Z,7.20
2018-05-21T20:56:32.016Z,3.77
2018-05-21T20:59:10.532Z,6.23
2018-05-21T21:01:47.602Z,10.00
2018-05-21T21:04:24.969Z,7.43
2018-05-21T21:07:02.706Z,9.50
2018-05-21T21:09:43.662Z,8.97
2018-05-21T21:12:20.469Z,4.33
2018-05-21T21:14:58.341Z,6.30
2018-05-21T21:17:35.581Z,4.00
2018-05-21T21:20:13.382Z,6.57
2018-05-21T21:22:50.674Z,5.00
2018-05-21T21:25:27.797Z,6.30
2018-05-21T21:28:04.121Z,6.13
2018-05-21T21:30:40.116Z,4.17
2018-05-21T21:33:17.909Z,4.97
2018-05-21T21:35:56.315Z,5.37
2018-05-21T21:38:33.461Z,11.93
2018-05-21T21:41:10.238Z,6.97
2018-05-21T21:43:47.534Z,4.80
2018-05-21T21:46:26.025Z,5.07
2018-05-21T21:49:03.882Z,6.72
2018-05-21T21:51:41.352Z,6.95
2018-05-21T21:54:19.252Z,6.87
2018-05-21T21:56:56.423Z,6.20
2018-05-21T21:59:35.678Z,8.20
2018-05-21T22:02:13.925Z,5.50
2018-05-21T22:04:52.578Z,7.68
2018-05-21T22:07:29.518Z,6.30
2018-05-21T22:10:05.750Z,4.75
2018-05-21T22:12:43.913Z,5.15
2018-05-21T22:15:22.329Z,9.02
2018-05-21T22:17:58.820Z,8.43
2018-05-21T22:20:35.519Z,6.65
2018-05-21T22:23:13.913Z,9.63
2018-05-21T22:25:51.468Z,8.88
2018-05-21T22:28:29.544Z,6.60
2018-05-21T22:31:06.808Z,6.68
2018-05-21T22:33:43.965Z,6.55
2018-05-21T22:36:20.615Z,5.55
2018-05-21T22:38:57.312Z,7.55
2018-05-21T22:41:34.852Z,6.22
2018-05-21T22:44:13.837Z,7.32
2018-05-21T22:46:50.042Z,6.70
2018-05-21T22:49:27.950Z,8.85
2018-05-21T22:52:06.205Z,7.07
2018-05-21T22:54:44.191Z,6.18
2018-05-21T22:57:22.297Z,8.23
2018-05-21T22:59:59.315Z,5.93
2018-05-21T23:02:37.638Z,7.10
2018-05-21T23:05:16.939Z,8.02
2018-05-21T23:07:54.225Z,6.10
2018-05-21T23:10:31.041Z,5.55
2018-05-21T23:13:09.121Z,11.18
2018-05-21T23:15:46.977Z,6.28
2018-05-21T23:18:23.678Z,6.25
2018-05-21T23:21:02.160Z,6.60
2018-05-21T23:23:39.295Z,5.70
2018-05-21T23:26:17.837Z,5.78
2018-05-21T23:28:54.790Z,6.70
2018-05-21T23:31:31.649Z,8.60
2018-05-21T23:34:08.922Z,6.00
2018-05-21T23:36:47.449Z,6.85
2018-05-21T23:39:24.689Z,7.18
2018-05-21T23:42:02.349Z,6.57
2018-05-21T23:44:41.184Z,7.60
2018-05-21T23:47:18.801Z,5.78
2018-05-21T23:49:56.949Z,6.85
2018-05-21T23:52:34.461Z,6.65
2018-05-21T23:55:11.813Z,5.90
2018-05-21T23:57:49.676Z,6.05
